sensor_id;sensor_type;location;lat;lon;timestamp;pressure;altitude;pressure_sealevel;temperature;humidity
43298;BME280;28892;55.640;37.532;2023-03-15T00:01:14;98095.34;;;4.11;50.04
43298;BME280;28892;55.640;37.532;2023-03-15T00:03:43;98080.91;;;4.23;49.94
43298;BME280;28892;55.640;37.532;2023-03-15T00:06:10;98118.09;;;4.35;49.64
43298;BME280;28892;55.640;37.532;2023-03-15T00:08:36;98097.44;;;4.32;49.84
43298;BME280;28892;55.640;37.532;2023-03-15T00:11:02;98139.09;;;4.35;49.62
43298;BME280;28892;55.640;37.532;2023-03-15T00:13:29;98124.03;;;4.21;50.35
43298;BME280;28892;55.640;37.532;2023-03-15T00:15:57;98106.31;;;4.23;50.11
43298;BME280;28892;55.640;37.532;2023-03-15T00:18:24;98109.19;;;4.44;50.05
43298;BME280;28892;55.640;37.532;2023-03-15T00:20:50;98111.56;;;4.23;50.53
43298;BME280;28892;55.640;37.532;2023-03-15T00:23:16;98121.63;;;4.02;50.95
43298;BME280;28892;55.640;37.532;2023-03-15T00:25:46;98106.19;;;3.99;51.46
43298;BME280;28892;55.640;37.532;2023-03-15T00:28:12;98130.75;;;4.23;50.61
43298;BME280;28892;55.640;37.532;2023-03-15T00:30:39;98116.06;;;4.54;50.80
43298;BME280;28892;55.640;37.532;2023-03-15T00:33:06;98120.22;;;4.31;50.89
43298;BME280;28892;55.640;37.532;2023-03-15T00:35:33;98122.03;;;4.39;50.41
43298;BME280;28892;55.640;37.532;2023-03-15T00:38:02;98116.06;;;4.45;50.55
43298;BME280;28892;55.640;37.532;2023-03-15T00:40:29;98132.56;;;4.06;51.76
43298;BME280;28892;55.640;37.532;2023-03-15T00:42:56;98113.41;;;4.05;51.89
43298;BME280;28892;55.640;37.532;2023-03-15T00:45:22;98119.91;;;4.26;51.35
43298;BME280;28892;55.640;37.532;2023-03-15T00:47:50;98111.53;;;4.39;51.37
43298;BME280;28892;55.640;37.532;2023-03-15T00:50:17;98105.19;;;4.09;51.79
43298;BME280;28892;55.640;37.532;2023-03-15T00:52:43;98116.03;;;4.05;52.12
43298;BME280;28892;55.640;37.532;2023-03-15T00:55:11;98113.06;;;4.00;52.00
43298;BME280;28892;55.640;37.532;2023-03-15T00:57:43;98098.31;;;3.99;52.50
43298;BME280;28892;55.640;37.532;2023-03-15T01:00:15;98093.91;;;3.91;52.56
43298;BME280;28892;55.640;37.532;2023-03-15T01:02:41;98111.47;;;3.91;52.32
43298;BME280;28892;55.640;37.532;2023-03-15T01:05:08;98091.25;;;4.08;52.38
43298;BME280;28892;55.640;37.532;2023-03-15T01:07:34;98105.88;;;4.02;52.29
43298;BME280;28892;55.640;37.532;2023-03-15T01:10:04;98136.34;;;4.12;52.41
43298;BME280;28892;55.640;37.532;2023-03-15T01:12:31;98128.16;;;3.98;52.39
43298;BME280;28892;55.640;37.532;2023-03-15T01:15:06;98102.75;;;4.07;52.61
43298;BME280;28892;55.640;37.532;2023-03-15T01:17:33;98091.53;;;4.30;51.71
43298;BME280;28892;55.640;37.532;2023-03-15T01:20:00;98096.03;;;4.04;52.79
43298;BME280;28892;55.640;37.532;2023-03-15T01:22:26;98090.13;;;3.94;52.97
43298;BME280;28892;55.640;37.532;2023-03-15T01:24:52;98099.13;;;4.08;53.02
43298;BME280;28892;55.640;37.532;2023-03-15T01:27:18;98088.50;;;3.93;53.18
43298;BME280;28892;55.640;37.532;2023-03-15T01:29:44;98107.47;;;4.12;52.72
43298;BME280;28892;55.640;37.532;2023-03-15T01:32:12;98125.41;;;3.91;53.44
43298;BME280;28892;55.640;37.532;2023-03-15T01:34:41;98118.03;;;3.78;53.67
43298;BME280;28892;55.640;37.532;2023-03-15T01:37:09;98124.25;;;3.94;53.78
43298;BME280;28892;55.640;37.532;2023-03-15T01:39:41;98099.59;;;4.12;53.40
43298;BME280;28892;55.640;37.532;2023-03-15T01:42:08;98117.53;;;3.83;53.94
43298;BME280;28892;55.640;37.532;2023-03-15T01:44:58;98119.81;;;3.95;54.10
43298;BME280;28892;55.640;37.532;2023-03-15T01:47:27;98107.19;;;3.90;53.88
43298;BME280;28892;55.640;37.532;2023-03-15T01:50:01;98126.53;;;3.97;54.25
43298;BME280;28892;55.640;37.532;2023-03-15T01:52:33;98112.63;;;3.97;54.13
43298;BME280;28892;55.640;37.532;2023-03-15T01:55:11;98098.81;;;3.95;54.10
43298;BME280;28892;55.640;37.532;2023-03-15T01:57:56;98127.53;;;3.88;54.73
43298;BME280;28892;55.640;37.532;2023-03-15T02:00:26;98094.53;;;4.02;54.31
43298;BME280;28892;55.640;37.532;2023-03-15T02:05:30;98130.78;;;3.90;54.71
43298;BME280;28892;55.640;37.532;2023-03-15T02:08:01;98121.56;;;4.19;54.07
43298;BME280;28892;55.640;37.532;2023-03-15T02:10:43;98120.25;;;4.23;54.28
43298;BME280;28892;55.640;37.532;2023-03-15T02:13:13;98110.78;;;4.14;54.30
43298;BME280;28892;55.640;37.532;2023-03-15T02:15:40;98122.88;;;4.23;53.78
43298;BME280;28892;55.640;37.532;2023-03-15T02:18:13;98107.50;;;4.03;54.53
43298;BME280;28892;55.640;37.532;2023-03-15T02:26:54;98108.50;;;3.94;54.88
43298;BME280;28892;55.640;37.532;2023-03-15T02:29:22;98128.16;;;3.90;54.87
43298;BME280;28892;55.640;37.532;2023-03-15T02:31:51;98111.28;;;4.01;54.78
43298;BME280;28892;55.640;37.532;2023-03-15T02:34:17;98124.09;;;3.96;54.98
43298;BME280;28892;55.640;37.532;2023-03-15T02:36:43;98111.97;;;4.43;53.53
43298;BME280;28892;55.640;37.532;2023-03-15T02:39:17;98128.28;;;4.22;54.09
43298;BME280;28892;55.640;37.532;2023-03-15T02:41:47;98122.16;;;4.46;53.64
43298;BME280;28892;55.640;37.532;2023-03-15T02:44:26;98130.97;;;4.53;53.58
43298;BME280;28892;55.640;37.532;2023-03-15T02:46:56;98131.13;;;4.60;53.28
43298;BME280;28892;55.640;37.532;2023-03-15T02:49:27;98127.06;;;4.49;53.57
43298;BME280;28892;55.640;37.532;2023-03-15T02:51:54;98130.41;;;4.26;54.26
43298;BME280;28892;55.640;37.532;2023-03-15T02:54:20;98132.19;;;4.42;53.29
43298;BME280;28892;55.640;37.532;2023-03-15T02:56:45;98120.94;;;4.00;54.85
43298;BME280;28892;55.640;37.532;2023-03-15T02:59:11;98131.78;;;3.89;54.93
43298;BME280;28892;55.640;37.532;2023-03-15T03:01:37;98129.50;;;3.94;54.96
43298;BME280;28892;55.640;37.532;2023-03-15T03:04:03;98132.44;;;3.99;54.62
43298;BME280;28892;55.640;37.532;2023-03-15T03:06:29;98134.25;;;3.90;55.16
43298;BME280;28892;55.640;37.532;2023-03-15T03:08:55;98157.81;;;4.15;54.52
43298;BME280;28892;55.640;37.532;2023-03-15T03:11:21;98114.09;;;3.91;55.22
43298;BME280;28892;55.640;37.532;2023-03-15T03:13:47;98142.44;;;4.04;54.65
43298;BME280;28892;55.640;37.532;2023-03-15T03:16:13;98140.63;;;3.88;55.26
43298;BME280;28892;55.640;37.532;2023-03-15T03:18:39;98123.13;;;3.88;54.99
43298;BME280;28892;55.640;37.532;2023-03-15T03:21:07;98143.28;;;3.80;55.49
43298;BME280;28892;55.640;37.532;2023-03-15T03:23:34;98143.94;;;3.57;55.94
43298;BME280;28892;55.640;37.532;2023-03-15T03:26:01;98153.13;;;3.86;55.36
43298;BME280;28892;55.640;37.532;2023-03-15T03:28:28;98137.72;;;3.58;55.84
43298;BME280;28892;55.640;37.532;2023-03-15T03:30:54;98129.84;;;3.66;55.87
43298;BME280;28892;55.640;37.532;2023-03-15T03:33:24;98144.13;;;3.63;55.95
43298;BME280;28892;55.640;37.532;2023-03-15T03:35:51;98133.28;;;3.58;56.19
43298;BME280;28892;55.640;37.532;2023-03-15T03:38:18;98135.72;;;3.68;55.71
43298;BME280;28892;55.640;37.532;2023-03-15T03:40:50;98157.34;;;3.45;56.47
43298;BME280;28892;55.640;37.532;2023-03-15T03:43:18;98143.44;;;3.45;56.46
43298;BME280;28892;55.640;37.532;2023-03-15T03:45:45;98154.28;;;3.67;56.18
43298;BME280;28892;55.640;37.532;2023-03-15T03:48:11;98126.72;;;3.62;55.90
43298;BME280;28892;55.640;37.532;2023-03-15T03:50:39;98149.69;;;3.85;55.43
43298;BME280;28892;55.640;37.532;2023-03-15T03:53:05;98142.63;;;3.44;56.27
43298;BME280;28892;55.640;37.532;2023-03-15T03:55:37;98138.69;;;3.57;56.18
43298;BME280;28892;55.640;37.532;2023-03-15T03:58:02;98144.59;;;3.51;55.81
43298;BME280;28892;55.640;37.532;2023-03-15T04:00:42;98156.38;;;3.38;56.35
43298;BME280;28892;55.640;37.532;2023-03-15T04:03:12;98142.78;;;3.59;55.48
43298;BME280;28892;55.640;37.532;2023-03-15T04:05:43;98129.16;;;4.05;55.11
43298;BME280;28892;55.640;37.532;2023-03-15T04:08:15;98143.09;;;3.98;54.74
43298;BME280;28892;55.640;37.532;2023-03-15T04:10:41;98149.69;;;3.77;55.24
43298;BME280;28892;55.640;37.532;2023-03-15T04:13:07;98161.16;;;3.68;55.72
43298;BME280;28892;55.640;37.532;2023-03-15T04:15:36;98138.69;;;3.57;56.11
43298;BME280;28892;55.640;37.532;2023-03-15T04:18:03;98151.31;;;3.61;55.62
43298;BME280;28892;55.640;37.532;2023-03-15T04:20:35;98149.00;;;3.83;54.93
43298;BME280;28892;55.640;37.532;2023-03-15T04:23:02;98169.19;;;3.74;55.34
43298;BME280;28892;55.640;37.532;2023-03-15T04:25:52;98151.78;;;4.15;54.66
43298;BME280;28892;55.640;37.532;2023-03-15T04:28:57;98159.63;;;4.23;54.19
43298;BME280;28892;55.640;37.532;2023-03-15T04:31:46;98158.69;;;3.91;54.49
43298;BME280;28892;55.640;37.532;2023-03-15T04:34:35;98128.03;;;3.83;54.88
43298;BME280;28892;55.640;37.532;2023-03-15T04:37:17;98165.06;;;4.05;54.20
43298;BME280;28892;55.640;37.532;2023-03-15T04:39:59;98171.31;;;3.79;54.87
43298;BME280;28892;55.640;37.532;2023-03-15T04:42:43;98162.31;;;3.48;55.38
43298;BME280;28892;55.640;37.532;2023-03-15T04:45:42;98168.34;;;3.82;54.86
43298;BME280;28892;55.640;37.532;2023-03-15T04:48:22;98163.94;;;3.49;55.87
43298;BME280;28892;55.640;37.532;2023-03-15T04:51:06;98170.28;;;3.39;55.85
43298;BME280;28892;55.640;37.532;2023-03-15T04:53:37;98161.97;;;3.52;55.32
43298;BME280;28892;55.640;37.532;2023-03-15T04:56:23;98170.94;;;3.41;55.87
43298;BME280;28892;55.640;37.532;2023-03-15T04:59:07;98183.25;;;3.57;55.44
43298;BME280;28892;55.640;37.532;2023-03-15T05:01:52;98154.09;;;3.68;54.92
43298;BME280;28892;55.640;37.532;2023-03-15T05:04:30;98176.72;;;3.53;55.45
43298;BME280;28892;55.640;37.532;2023-03-15T05:07:21;98187.81;;;3.30;55.69
43298;BME280;28892;55.640;37.532;2023-03-15T05:10:09;98161.63;;;3.38;55.04
43298;BME280;28892;55.640;37.532;2023-03-15T05:13:21;98170.94;;;3.41;55.34
43298;BME280;28892;55.640;37.532;2023-03-15T05:16:07;98205.22;;;3.56;54.79
43298;BME280;28892;55.640;37.532;2023-03-15T05:18:53;98174.09;;;3.77;53.90
43298;BME280;28892;55.640;37.532;2023-03-15T05:21:37;98181.47;;;3.57;54.77
43298;BME280;28892;55.640;37.532;2023-03-15T05:24:31;98197.84;;;3.51;54.50
43298;BME280;28892;55.640;37.532;2023-03-15T05:27:20;98204.91;;;3.51;54.71
43298;BME280;28892;55.640;37.532;2023-03-15T05:30:10;98215.16;;;3.27;55.29
43298;BME280;28892;55.640;37.532;2023-03-15T05:33:05;98201.78;;;3.47;54.52
43298;BME280;28892;55.640;37.532;2023-03-15T05:35:51;98210.50;;;3.89;53.83
43298;BME280;28892;55.640;37.532;2023-03-15T05:38:34;98203.56;;;4.38;52.87
43298;BME280;28892;55.640;37.532;2023-03-15T05:41:13;98217.06;;;4.18;53.11
43298;BME280;28892;55.640;37.532;2023-03-15T05:44:03;98207.69;;;4.24;53.24
43298;BME280;28892;55.640;37.532;2023-03-15T05:46:51;98189.25;;;4.48;52.19
43298;BME280;28892;55.640;37.532;2023-03-15T05:49:37;98232.25;;;5.12;51.66
43298;BME280;28892;55.640;37.532;2023-03-15T05:52:22;98234.25;;;4.37;52.13
43298;BME280;28892;55.640;37.532;2023-03-15T05:55:14;98221.66;;;4.81;52.26
43298;BME280;28892;55.640;37.532;2023-03-15T05:57:49;98223.56;;;5.03;51.66
43298;BME280;28892;55.640;37.532;2023-03-15T06:00:36;98217.91;;;4.83;50.97
43298;BME280;28892;55.640;37.532;2023-03-15T06:03:14;98241.25;;;5.18;50.46
43298;BME280;28892;55.640;37.532;2023-03-15T06:05:51;98244.53;;;4.72;51.65
43298;BME280;28892;55.640;37.532;2023-03-15T06:08:26;98255.75;;;4.41;52.42
43298;BME280;28892;55.640;37.532;2023-03-15T06:10:53;98235.69;;;5.13;51.47
43298;BME280;28892;55.640;37.532;2023-03-15T06:13:19;98244.03;;;5.16;50.54
43298;BME280;28892;55.640;37.532;2023-03-15T06:15:45;98246.81;;;4.75;51.36
43298;BME280;28892;55.640;37.532;2023-03-15T06:18:12;98240.47;;;4.53;52.40
43298;BME280;28892;55.640;37.532;2023-03-15T06:20:42;98239.84;;;4.26;52.69
43298;BME280;28892;55.640;37.532;2023-03-15T06:23:11;98246.28;;;4.88;51.71
43298;BME280;28892;55.640;37.532;2023-03-15T06:25:44;98254.66;;;5.00;51.42
43298;BME280;28892;55.640;37.532;2023-03-15T06:28:10;98251.91;;;4.85;51.87
43298;BME280;28892;55.640;37.532;2023-03-15T06:30:39;98248.03;;;5.12;51.43
43298;BME280;28892;55.640;37.532;2023-03-15T06:33:06;98244.00;;;4.85;51.47
43298;BME280;28892;55.640;37.532;2023-03-15T06:35:32;98226.53;;;5.64;50.90
43298;BME280;28892;55.640;37.532;2023-03-15T06:37:58;98261.38;;;5.42;50.48
43298;BME280;28892;55.640;37.532;2023-03-15T06:40:23;98237.81;;;5.49;51.04
43298;BME280;28892;55.640;37.532;2023-03-15T06:42:49;98239.53;;;5.65;50.89
43298;BME280;28892;55.640;37.532;2023-03-15T06:45:17;98218.84;;;5.30;50.51
43298;BME280;28892;55.640;37.532;2023-03-15T06:47:44;98256.81;;;5.28;51.52
43298;BME280;28892;55.640;37.532;2023-03-15T06:50:11;98269.97;;;4.80;52.42
43298;BME280;28892;55.640;37.532;2023-03-15T06:52:37;98222.28;;;4.91;52.60
43298;BME280;28892;55.640;37.532;2023-03-15T06:55:03;98236.19;;;5.08;52.00
43298;BME280;28892;55.640;37.532;2023-03-15T06:57:30;98244.63;;;5.35;50.97
43298;BME280;28892;55.640;37.532;2023-03-15T06:59:55;98228.94;;;4.70;52.79
43298;BME280;28892;55.640;37.532;2023-03-15T07:02:21;98244.53;;;5.20;51.15
43298;BME280;28892;55.640;37.532;2023-03-15T07:04:47;98241.59;;;4.67;52.97
43298;BME280;28892;55.640;37.532;2023-03-15T07:07:14;98246.69;;;5.16;52.48
43298;BME280;28892;55.640;37.532;2023-03-15T07:09:40;98240.03;;;5.29;51.50
43298;BME280;28892;55.640;37.532;2023-03-15T07:12:06;98276.81;;;4.97;52.59
43298;BME280;28892;55.640;37.532;2023-03-15T07:14:33;98282.28;;;4.79;53.34
43298;BME280;28892;55.640;37.532;2023-03-15T07:16:59;98250.84;;;5.42;51.58
43298;BME280;28892;55.640;37.532;2023-03-15T07:19:24;98255.03;;;6.07;50.76
43298;BME280;28892;55.640;37.532;2023-03-15T07:21:52;98273.44;;;5.83;50.16
43298;BME280;28892;55.640;37.532;2023-03-15T07:24:17;98265.91;;;5.80;50.65
43298;BME280;28892;55.640;37.532;2023-03-15T07:26:43;98270.97;;;6.13;50.17
43298;BME280;28892;55.640;37.532;2023-03-15T07:29:09;98285.38;;;5.71;50.69
43298;BME280;28892;55.640;37.532;2023-03-15T07:31:35;98280.16;;;5.63;51.23
43298;BME280;28892;55.640;37.532;2023-03-15T07:34:00;98278.94;;;6.05;50.90
43298;BME280;28892;55.640;37.532;2023-03-15T07:36:26;98300.78;;;6.06;50.51
43298;BME280;28892;55.640;37.532;2023-03-15T07:38:52;98292.09;;;5.97;50.72
43298;BME280;28892;55.640;37.532;2023-03-15T07:41:18;98298.78;;;5.84;51.20
43298;BME280;28892;55.640;37.532;2023-03-15T07:43:54;98297.91;;;5.92;51.38
43298;BME280;28892;55.640;37.532;2023-03-15T07:46:20;98302.97;;;5.70;51.30
43298;BME280;28892;55.640;37.532;2023-03-15T07:48:46;98289.31;;;5.98;50.87
43298;BME280;28892;55.640;37.532;2023-03-15T07:51:11;98310.53;;;5.97;50.81
43298;BME280;28892;55.640;37.532;2023-03-15T07:53:37;98301.72;;;6.36;50.44
43298;BME280;28892;55.640;37.532;2023-03-15T07:56:04;98287.34;;;5.69;51.73
43298;BME280;28892;55.640;37.532;2023-03-15T07:58:29;98318.50;;;5.57;51.74
43298;BME280;28892;55.640;37.532;2023-03-15T08:00:56;98315.63;;;5.98;51.22
43298;BME280;28892;55.640;37.532;2023-03-15T08:03:23;98302.22;;;6.17;50.95
43298;BME280;28892;55.640;37.532;2023-03-15T08:05:49;98284.31;;;6.12;50.60
43298;BME280;28892;55.640;37.532;2023-03-15T08:08:15;98292.44;;;6.02;50.82
43298;BME280;28892;55.640;37.532;2023-03-15T08:10:43;98320.75;;;6.23;50.45
43298;BME280;28892;55.640;37.532;2023-03-15T08:13:10;98293.78;;;6.21;50.69
43298;BME280;28892;55.640;37.532;2023-03-15T08:15:36;98299.97;;;5.73;51.57
43298;BME280;28892;55.640;37.532;2023-03-15T08:18:02;98309.91;;;6.41;50.88
43298;BME280;28892;55.640;37.532;2023-03-15T08:20:28;98313.84;;;6.22;51.07
43298;BME280;28892;55.640;37.532;2023-03-15T08:22:54;98324.28;;;6.54;50.53
43298;BME280;28892;55.640;37.532;2023-03-15T08:25:22;98296.06;;;6.63;50.22
43298;BME280;28892;55.640;37.532;2023-03-15T08:27:49;98303.28;;;6.99;49.46
43298;BME280;28892;55.640;37.532;2023-03-15T08:30:17;98291.00;;;6.76;50.58
43298;BME280;28892;55.640;37.532;2023-03-15T08:32:45;98293.25;;;6.79;50.14
43298;BME280;28892;55.640;37.532;2023-03-15T08:35:19;98283.44;;;6.58;50.61
43298;BME280;28892;55.640;37.532;2023-03-15T08:37:54;98311.34;;;6.82;50.19
43298;BME280;28892;55.640;37.532;2023-03-15T08:40:26;98334.81;;;6.92;50.44
43298;BME280;28892;55.640;37.532;2023-03-15T08:42:53;98323.63;;;7.20;49.74
43298;BME280;28892;55.640;37.532;2023-03-15T08:45:19;98324.13;;;6.94;49.81
43298;BME280;28892;55.640;37.532;2023-03-15T08:47:45;98310.53;;;6.43;51.18
43298;BME280;28892;55.640;37.532;2023-03-15T08:50:12;98320.03;;;7.06;49.78
43298;BME280;28892;55.640;37.532;2023-03-15T08:52:39;98304.72;;;6.71;50.42
43298;BME280;28892;55.640;37.532;2023-03-15T08:55:09;98329.03;;;6.59;51.49
43298;BME280;28892;55.640;37.532;2023-03-15T08:57:39;98319.22;;;6.29;52.06
43298;BME280;28892;55.640;37.532;2023-03-15T09:00:09;98341.88;;;6.38;52.34
43298;BME280;28892;55.640;37.532;2023-03-15T09:02:48;98313.03;;;6.22;52.50
43298;BME280;28892;55.640;37.532;2023-03-15T09:05:17;98319.81;;;6.16;52.64
43298;BME280;28892;55.640;37.532;2023-03-15T09:07:43;98301.47;;;6.08;53.11
43298;BME280;28892;55.640;37.532;2023-03-15T09:10:11;98314.22;;;6.19;53.15
43298;BME280;28892;55.640;37.532;2023-03-15T09:12:46;98305.81;;;6.39;52.52
43298;BME280;28892;55.640;37.532;2023-03-15T09:15:12;98312.53;;;6.41;52.43
43298;BME280;28892;55.640;37.532;2023-03-15T09:17:39;98312.84;;;6.23;52.84
43298;BME280;28892;55.640;37.532;2023-03-15T09:20:08;98332.22;;;6.07;53.55
43298;BME280;28892;55.640;37.532;2023-03-15T09:22:43;98318.75;;;6.49;52.67
43298;BME280;28892;55.640;37.532;2023-03-15T09:25:10;98315.91;;;6.35;52.84
43298;BME280;28892;55.640;37.532;2023-03-15T09:27:45;98335.97;;;6.75;52.29
43298;BME280;28892;55.640;37.532;2023-03-15T09:30:17;98326.84;;;7.01;51.53
43298;BME280;28892;55.640;37.532;2023-03-15T09:32:44;98329.03;;;7.12;51.10
43298;BME280;28892;55.640;37.532;2023-03-15T09:35:16;98314.53;;;6.63;52.46
43298;BME280;28892;55.640;37.532;2023-03-15T09:37:42;98321.78;;;6.76;52.21
43298;BME280;28892;55.640;37.532;2023-03-15T09:40:19;98328.38;;;6.95;52.03
43298;BME280;28892;55.640;37.532;2023-03-15T09:48:10;98320.63;;;6.78;52.27
43298;BME280;28892;55.640;37.532;2023-03-15T09:50:46;98302.03;;;6.95;52.08
43298;BME280;28892;55.640;37.532;2023-03-15T09:53:27;98322.84;;;6.66;53.19
43298;BME280;28892;55.640;37.532;2023-03-15T09:55:57;98316.63;;;6.82;52.70
43298;BME280;28892;55.640;37.532;2023-03-15T09:58:24;98307.94;;;7.12;51.89
43298;BME280;28892;55.640;37.532;2023-03-15T10:01:03;98305.44;;;7.40;51.74
43298;BME280;28892;55.640;37.532;2023-03-15T10:03:41;98336.09;;;7.11;51.96
43298;BME280;28892;55.640;37.532;2023-03-15T10:06:16;98315.28;;;7.32;51.76
43298;BME280;28892;55.640;37.532;2023-03-15T10:08:45;98306.00;;;7.21;51.94
43298;BME280;28892;55.640;37.532;2023-03-15T10:16:41;98275.22;;;7.80;50.91
43298;BME280;28892;55.640;37.532;2023-03-15T10:22:21;98305.72;;;7.82;50.52
43298;BME280;28892;55.640;37.532;2023-03-15T10:25:00;98290.28;;;8.01;49.97
43298;BME280;28892;55.640;37.532;2023-03-15T10:27:40;98303.59;;;8.58;48.75
43298;BME280;28892;55.640;37.532;2023-03-15T10:30:19;98300.50;;;9.12;47.45
43298;BME280;28892;55.640;37.532;2023-03-15T10:33:00;98275.44;;;8.72;48.23
43298;BME280;28892;55.640;37.532;2023-03-15T10:35:27;98288.56;;;9.29;47.16
43298;BME280;28892;55.640;37.532;2023-03-15T10:37:52;98290.72;;;9.12;46.96
43298;BME280;28892;55.640;37.532;2023-03-15T10:40:41;98305.50;;;9.42;46.87
43298;BME280;28892;55.640;37.532;2023-03-15T10:43:27;98329.97;;;9.44;46.80
43298;BME280;28892;55.640;37.532;2023-03-15T10:46:07;98304.19;;;9.66;46.33
43298;BME280;28892;55.640;37.532;2023-03-15T10:48:37;98303.19;;;9.81;45.92
43298;BME280;28892;55.640;37.532;2023-03-15T10:51:17;98316.59;;;10.41;45.72
43298;BME280;28892;55.640;37.532;2023-03-15T10:56:37;98306.81;;;10.62;43.88
43298;BME280;28892;55.640;37.532;2023-03-15T10:59:17;98323.59;;;11.42;43.93
43298;BME280;28892;55.640;37.532;2023-03-15T11:01:46;98312.78;;;11.37;42.92
43298;BME280;28892;55.640;37.532;2023-03-15T11:04:22;98334.44;;;11.34;42.39
43298;BME280;28892;55.640;37.532;2023-03-15T11:09:21;98311.72;;;10.52;44.39
43298;BME280;28892;55.640;37.532;2023-03-15T11:14:40;98335.75;;;9.61;46.11
43298;BME280;28892;55.640;37.532;2023-03-15T11:17:22;98338.25;;;9.76;45.99
43298;BME280;28892;55.640;37.532;2023-03-15T11:19:56;98306.81;;;9.59;46.84
43298;BME280;28892;55.640;37.532;2023-03-15T11:22:27;98321.88;;;11.02;44.00
43298;BME280;28892;55.640;37.532;2023-03-15T11:24:58;98314.41;;;11.38;43.07
43298;BME280;28892;55.640;37.532;2023-03-15T11:27:25;98308.53;;;11.29;43.41
43298;BME280;28892;55.640;37.532;2023-03-15T11:29:55;98297.75;;;9.96;45.41
43298;BME280;28892;55.640;37.532;2023-03-15T11:32:30;98285.59;;;10.69;44.25
43298;BME280;28892;55.640;37.532;2023-03-15T11:35:20;98311.66;;;11.12;43.08
43298;BME280;28892;55.640;37.532;2023-03-15T11:37:57;98325.66;;;9.91;45.81
43298;BME280;28892;55.640;37.532;2023-03-15T11:40:32;98304.13;;;10.22;44.98
43298;BME280;28892;55.640;37.532;2023-03-15T11:51:11;98310.25;;;10.69;45.23
43298;BME280;28892;55.640;37.532;2023-03-15T11:53:46;98293.03;;;9.91;46.04
43298;BME280;28892;55.640;37.532;2023-03-15T11:56:27;98285.59;;;9.46;47.22
43298;BME280;28892;55.640;37.532;2023-03-15T11:59:38;98301.28;;;8.77;48.82
43298;BME280;28892;55.640;37.532;2023-03-15T12:04:47;98301.25;;;8.70;48.93
43298;BME280;28892;55.640;37.532;2023-03-15T12:09:48;98288.69;;;7.85;51.31
43298;BME280;28892;55.640;37.532;2023-03-15T12:18:13;98325.81;;;8.20;50.14
43298;BME280;28892;55.640;37.532;2023-03-15T12:20:50;98326.31;;;9.09;48.71
43298;BME280;28892;55.640;37.532;2023-03-15T12:26:39;98316.19;;;8.34;50.06
43298;BME280;28892;55.640;37.532;2023-03-15T12:29:17;98330.97;;;8.07;50.92
43298;BME280;28892;55.640;37.532;2023-03-15T12:32:07;98315.09;;;7.85;51.35
43298;BME280;28892;55.640;37.532;2023-03-15T12:34:53;98337.31;;;8.13;50.68
43298;BME280;28892;55.640;37.532;2023-03-15T12:37:45;98327.72;;;7.53;52.11
43298;BME280;28892;55.640;37.532;2023-03-15T12:50:51;98340.19;;;9.12;48.38
43298;BME280;28892;55.640;37.532;2023-03-15T12:55:57;98329.53;;;9.33;47.78
43298;BME280;28892;55.640;37.532;2023-03-15T12:58:30;98341.34;;;9.02;48.13
43298;BME280;28892;55.640;37.532;2023-03-15T13:01:02;98336.78;;;8.89;48.70
43298;BME280;28892;55.640;37.532;2023-03-15T13:03:38;98327.97;;;9.11;47.74
43298;BME280;28892;55.640;37.532;2023-03-15T13:09:55;98335.53;;;8.85;49.14
43298;BME280;28892;55.640;37.532;2023-03-15T13:12:37;98347.41;;;8.96;48.64
43298;BME280;28892;55.640;37.532;2023-03-15T13:15:19;98338.16;;;9.14;48.32
43298;BME280;28892;55.640;37.532;2023-03-15T13:17:57;98339.50;;;8.31;50.13
43298;BME280;28892;55.640;37.532;2023-03-15T13:20:39;98328.25;;;8.65;49.14
43298;BME280;28892;55.640;37.532;2023-03-15T13:23:35;98331.91;;;8.21;50.67
43298;BME280;28892;55.640;37.532;2023-03-15T13:28:57;98309.13;;;8.42;50.51
43298;BME280;28892;55.640;37.532;2023-03-15T13:31:33;98306.34;;;8.50;49.71
43298;BME280;28892;55.640;37.532;2023-03-15T13:34:40;98327.88;;;8.47;49.93
43298;BME280;28892;55.640;37.532;2023-03-15T13:37:25;98299.56;;;8.62;50.33
43298;BME280;28892;55.640;37.532;2023-03-15T13:40:02;98310.06;;;8.12;51.21
43298;BME280;28892;55.640;37.532;2023-03-15T13:42:30;98307.69;;;7.95;51.62
43298;BME280;28892;55.640;37.532;2023-03-15T13:47:33;98293.59;;;7.88;51.20
43298;BME280;28892;55.640;37.532;2023-03-15T13:50:05;98304.03;;;8.18;51.06
43298;BME280;28892;55.640;37.532;2023-03-15T13:52:36;98307.94;;;8.01;51.06
43298;BME280;28892;55.640;37.532;2023-03-15T13:55:14;98306.69;;;8.40;50.63
43298;BME280;28892;55.640;37.532;2023-03-15T13:57:42;98305.16;;;8.31;50.12
43298;BME280;28892;55.640;37.532;2023-03-15T14:00:15;98294.78;;;7.86;51.15
43298;BME280;28892;55.640;37.532;2023-03-15T14:02:53;98342.59;;;7.76;51.27
43298;BME280;28892;55.640;37.532;2023-03-15T14:05:33;98313.16;;;7.94;51.20
43298;BME280;28892;55.640;37.532;2023-03-15T14:08:05;98327.53;;;7.69;51.59
43298;BME280;28892;55.640;37.532;2023-03-15T14:10:41;98301.38;;;7.75;51.50
43298;BME280;28892;55.640;37.532;2023-03-15T14:16:13;98296.06;;;8.11;50.47
43298;BME280;28892;55.640;37.532;2023-03-15T14:18:40;98299.03;;;7.65;51.35
43298;BME280;28892;55.640;37.532;2023-03-15T14:21:19;98313.16;;;7.94;50.93
43298;BME280;28892;55.640;37.532;2023-03-15T14:23:47;98298.88;;;7.88;50.28
43298;BME280;28892;55.640;37.532;2023-03-15T14:26:17;98315.69;;;7.65;50.97
43298;BME280;28892;55.640;37.532;2023-03-15T14:29:03;98303.06;;;7.46;51.63
43298;BME280;28892;55.640;37.532;2023-03-15T14:31:32;98314.53;;;7.53;51.54
43298;BME280;28892;55.640;37.532;2023-03-15T14:34:16;98318.63;;;7.40;51.87
43298;BME280;28892;55.640;37.532;2023-03-15T14:36:44;98329.91;;;7.49;51.52
43298;BME280;28892;55.640;37.532;2023-03-15T14:41:44;98323.84;;;7.04;52.79
43298;BME280;28892;55.640;37.532;2023-03-15T14:44:10;98333.31;;;7.13;52.51
43298;BME280;28892;55.640;37.532;2023-03-15T14:46:36;98322.63;;;6.76;53.16
43298;BME280;28892;55.640;37.532;2023-03-15T14:49:01;98296.09;;;7.08;52.43